• Join FlightAware (Why Join?)
  • Login
  • US Flag 
05:59AM EDT


 

Airport Tracker/Info


-or-


 

Live Flight TrackerFlight Track Log ✈ FLG3429 ✈ 29-Sep-2013 ✈ KJFK - KJAX

Flight Track Log - Related Links

Times and Time Zones

All times are in EDT time to prevent confusion due to time zone crossing. See the FLG3429 flight status page for this flight to view local times or setup timezone preferences in your user account.

Time Position Orientation Groundspeed Altitude Reporting Facility
EDT Latitude Longitude Course Direction KTS MPH feet Rate Location/Type
07:30PM 40.6167 -73.7667 153° Southeast 173 199 1,700  Level New York TRACON
07:31PM 40.5667 -73.7333 153° Southeast 213 245 3,700 1,920 Climbing New York TRACON
07:32PM 40.5167 -73.6667 135° Southeast 262 302 5,600 1,740 Climbing New York TRACON
07:34PM 40.3914 -73.5561 146° Southeast 277 319 9,200 1,740 Climbing New York Center
07:35PM 40.3047 -73.5225 164° South 285 328 11,000 1,500 Climbing New York Center
07:36PM 40.2175 -73.5000 169° South 337 388 12,200 1,680 Climbing New York Center
07:37PM 40.1047 -73.5172 187° South 363 418 14,400 1,980 Climbing New York Center
07:38PM 39.9981 -73.5319 186° South 387 445 16,200 1,620 Climbing New York Center
07:40PM 39.8358 -73.5650 189° South 411 473 18,400 1,500 Climbing Washington Center
07:41PM 39.7458 -73.6539 217° Southwest 402 463 20,000 1,380 Climbing Washington Center
07:42PM 39.6658 -73.7369 219° Southwest 402 463 21,300 1,140 Climbing Washington Center
07:43PM 39.5778 -73.8361 221° Southwest 414 476 22,400 1,200 Climbing Washington Center
07:44PM 39.4811 -73.9406 220° Southwest 436 502 23,700 1,140 Climbing Washington Center
07:45PM 39.3867 -74.0450 221° Southwest 447 514 24,700 1,080 Climbing Washington Center
07:46PM 39.2900 -74.1517 221° Southwest 456 525 25,900 1,140 Climbing Washington Center
07:47PM 39.1933 -74.2553 220° Southwest 456 525 27,000 1,020 Climbing Washington Center
07:48PM 39.0967 -74.3614 220° Southwest 456 525 28,000 480 Climbing Washington Center
07:49PM 38.9997 -74.4672 220° Southwest 461 531 28,000  Level Washington Center
07:50PM 38.9025 -74.5728 220° Southwest 456 525 28,000  Level Washington Center
07:51PM 38.8097 -74.6725 220° Southwest 451 519 28,000  Level Washington Center
07:52PM 38.7144 -74.7775 221° Southwest 451 519 28,000  Level Washington Center
07:53PM 38.6172 -74.8769 219° Southwest 451 519 28,000  Level Washington Center
07:54PM 38.5175 -74.9733 217° Southwest 456 525 28,000  Level Washington Center
07:55PM 38.4158 -75.0592 213° Southwest 449 517 28,000  Level Washington Center
07:56PM 38.3161 -75.1444 214° Southwest 443 510 28,000  Level Washington Center
07:57PM 38.2183 -75.2350 216° Southwest 443 510 28,000  Level Washington Center
07:58PM 38.1164 -75.3225 214° Southwest 443 510 28,000  Level Washington Center
07:59PM 38.0125 -75.4072 213° Southwest 443 510 28,000  Level Washington Center
08:00PM 37.9083 -75.4997 215° Southwest 448 516 28,000  Level Washington Center
08:01PM 37.8039 -75.5867 213° Southwest 448 516 28,000  Level Washington Center
08:02PM 37.6997 -75.6758 214° Southwest 453 521 28,000  Level Washington Center
08:03PM 37.5933 -75.7622 213° Southwest 458 527 28,000  Level Washington Center
08:04PM 37.4867 -75.8536 214° Southwest 463 533 28,000  Level Washington Center
08:05PM 37.3842 -75.9369 213° Southwest 458 527 28,000  Level Washington Center
08:06PM 37.2775 -76.0278 214° Southwest 463 533 28,000  Level Washington Center
08:07PM 37.1750 -76.1131 214° Southwest 458 527 28,000  Level Washington Center
08:08PM 37.0661 -76.1931 210° Southwest 458 527 28,000  Level Washington Center
08:09PM 36.9614 -76.2808 214° Southwest 458 527 28,000  Level Washington Center
08:10PM 36.8586 -76.3656 213° Southwest 458 527 28,000  Level Washington Center
08:11PM 36.7539 -76.4500 213° Southwest 458 527 28,000  Level Washington Center
08:12PM 36.6406 -76.5472 215° Southwest 458 527 28,000  Level Washington Center
08:13PM 36.5311 -76.6364 213° Southwest 463 533 28,000  Level Washington Center
08:14PM 36.4242 -76.7200 212° Southwest 463 533 28,000  Level Washington Center
08:15PM 36.3169 -76.8061 213° Southwest 463 533 28,000  Level Washington Center
08:16PM 36.2117 -76.8919 213° Southwest 463 533 28,000  Level Washington Center
08:17PM 36.1042 -76.9778 213° Southwest 463 533 28,000  Level Washington Center
08:18PM 35.9925 -77.0656 212° Southwest 468 539 28,000  Level Washington Center
08:19PM 35.8978 -77.1483 215° Southwest 468 539 28,000  Level Washington Center
08:20PM 35.7919 -77.2539 219° Southwest 479 551 28,000  Level Washington Center
08:21PM 35.6883 -77.3567 219° Southwest 484 557 28,000  Level Washington Center
08:22PM 35.5844 -77.4642 220° Southwest 495 570 28,000  Level Washington Center
08:23PM 35.4783 -77.5689 219° Southwest 495 570 28,000  Level Washington Center
08:24PM 35.3703 -77.6731 218° Southwest 495 570 28,000  Level Washington Center
08:25PM 35.2619 -77.7797 219° Southwest 501 577 28,000  Level Washington Center
08:26PM 35.1578 -77.8836 219° Southwest 501 577 28,000  Level Washington Center
08:27PM 35.0514 -77.9872 219° Southwest 501 577 28,000  Level Washington Center
08:28PM 34.9469 -78.0906 219° Southwest 501 577 28,000  Level Washington Center
08:29PM 34.8403 -78.1958 219° Southwest 501 577 28,000  Level Washington Center
08:30PM 34.7358 -78.3039 220° Southwest 501 577 28,000  Level Washington Center
08:31PM 34.6144 -78.4200 218° Southwest 477 549 28,000  Level Jacksonville Center
08:32PM 34.5175 -78.5056 216° Southwest 482 555 28,000  Level Jacksonville Center
08:33PM 34.4025 -78.6247 221° Southwest 493 567 28,000  Level Jacksonville Center
08:34PM 34.2975 -78.7253 218° Southwest 493 567 28,000  Level Jacksonville Center
08:35PM 34.1922 -78.8233 218° Southwest 493 567 28,000  Level Jacksonville Center
08:36PM 34.0850 -78.9261 218° Southwest 493 567 28,000  Level Jacksonville Center
08:37PM 33.9817 -79.0233 218° Southwest 493 567 28,000  Level Jacksonville Center
08:38PM 33.8761 -79.1231 218° Southwest 493 567 28,000  Level Jacksonville Center
08:39PM 33.7706 -79.2200 217° Southwest 493 567 28,000  Level Jacksonville Center
08:40PM 33.6689 -79.3167 218° Southwest 485 558 28,000  Level Jacksonville Center
08:41PM 33.5653 -79.4131 218° Southwest 480 552 28,000  Level Jacksonville Center
08:42PM 33.4614 -79.5117 218° Southwest 480 552 28,000  Level Jacksonville Center
08:43PM 33.3597 -79.6075 218° Southwest 480 552 28,000  Level Jacksonville Center
08:44PM 33.2556 -79.7058 218° Southwest 480 552 28,000  Level Jacksonville Center
08:45PM 33.1517 -79.7986 217° Southwest 480 552 28,000  Level Jacksonville Center
08:46PM 33.0475 -79.8964 218° Southwest 480 552 28,000  Level Jacksonville Center
08:47PM 32.9617 -79.9736 217° Southwest 480 552 28,000  Level Jacksonville Center
08:48PM 32.8450 -80.0764 217° Southwest 480 552 28,000  Level Jacksonville Center
08:49PM 32.7364 -80.1636 214° Southwest 480 552 28,000  Level Jacksonville Center
08:50PM 32.6253 -80.2483 213° Southwest 480 552 28,000  Level Jacksonville Center
08:51PM 32.5164 -80.3328 213° Southwest 480 552 28,000  Level Jacksonville Center
08:52PM 32.4075 -80.4194 214° Southwest 480 552 28,000  Level Jacksonville Center
08:53PM 32.2964 -80.5036 213° Southwest 480 552 28,000  Level Jacksonville Center
08:54PM 32.1853 -80.5875 213° Southwest 480 552 28,000 -600 Level Jacksonville Center
08:55PM 32.0678 -80.6814 214° Southwest 475 547 26,800 -1,140 Descending Jacksonville Center
08:56PM 31.9689 -80.7547 212° Southwest 480 552 25,800 -1,140 Descending Jacksonville Center
08:57PM 31.8453 -80.8506 213° Southwest 480 552 24,600 -1,140 Descending Jacksonville Center
08:58PM 31.7297 -80.9361 212° Southwest 488 562 23,600 -1,080 Descending Jacksonville Center
08:59PM 31.6306 -81.0039 210° Southwest 483 556 22,500 -1,380 Descending Jacksonville Center
09:00PM 31.5064 -81.0797 208° Southwest 465 535 20,900 -1,800 Descending Jacksonville Center
09:01PM 31.4069 -81.1375 206° Southwest 447 514 18,900 -2,160 Descending Jacksonville Center
09:01PM 31.3781 -81.1600 214° Southwest 435 501 18,400 -2,040 Descending Jacksonville Center
09:02PM 31.2992 -81.2053 206° Southwest 441 507 16,900 -2,100 Descending Jacksonville Center
09:02PM 31.2475 -81.2353 206° Southwest 427 491 15,900 -2,100 Descending Jacksonville Center
09:03PM 31.1958 -81.2678 208° Southwest 436 502 14,800 -2,220 Descending Jacksonville Center
09:03PM 31.1419 -81.3003 207° Southwest 418 481 13,700 -2,100 Descending Jacksonville Center
09:04PM 31.0942 -81.3303 208° Southwest 425 489 12,700 -2,100 Descending Jacksonville Center
09:04PM 31.0300 -81.3675 206° Southwest 403 464 11,400 -2,040 Descending Jacksonville Center
09:05PM 30.9947 -81.3875 206° Southwest 414 476 10,700 -1,440 Descending Jacksonville Center
09:05PM 30.9344 -81.4272 209° Southwest 375 432 10,000 -720 Descending Jacksonville Center
09:06PM 30.9056 -81.4447 207° Southwest 390 449 10,000  Level Jacksonville Center
09:06PM 30.8558 -81.4867 216° Southwest 327 376 10,000 -120 Level Jacksonville Center
09:07PM 30.8375 -81.5111 229° Southwest 356 410 9,900 -1,560 Descending Jacksonville Center
09:07PM 30.7919 -81.5578 221° Southwest 289 333 8,300 -1,800 Descending Jacksonville Center
09:08PM 30.7775 -81.5747 225° Southwest 318 366 8,100 -1,440 Descending Jacksonville Center
09:08PM 30.7342 -81.6189 221° Southwest 271 312 6,900 -1,740 Descending Jacksonville Center
09:09PM 30.7239 -81.6336 231° Southwest 295 339 6,400 -1,980 Descending Jacksonville Center
09:09PM 30.6806 -81.6800 223° Southwest 273 314 4,900 -1,920 Descending Jacksonville Center
09:10PM 30.6658 -81.6947 221° Southwest 288 331 4,500 -1,680 Descending Jacksonville Center
09:10PM 30.6225 -81.7411 223° Southwest 277 319 3,200 -1,740 Descending Jacksonville Center
09:11PM 30.6122 -81.7581 235° Southwest 288 331 2,800 -1,200 Descending Jacksonville Center
09:11PM 30.5708 -81.8044 224° Southwest 262 302 2,000 -540 Descending Jacksonville Center
09:12PM 30.5231 -81.8267 202° Southwest 191 220 2,000 -180 Level Jacksonville Center
09:13PM 30.4769 -81.7983 152° Southeast 164 189 1,700 -480 Descending Jacksonville Center
09:14PM 30.4786 -81.7525 88° East 126 145 1,000 -720 Descending Jacksonville Center
09:15PM 30.4908 -81.7139 70° East 132 152 300 -720 Descending Jacksonville Center
09:17PM 30.4833 -81.6833 130° Southeast  Level FlightAware Approximate
09:24PM 30.4941 -81.6878 130° Southeast  Level Estimated